createdAt,value
2023-06-09T00:01:53.394Z,86.37
2023-06-09T00:04:20.058Z,86.26
2023-06-09T00:06:46.715Z,86.33
2023-06-09T00:09:13.586Z,86.63
2023-06-09T00:11:40.228Z,87.25
2023-06-09T00:14:06.605Z,86.89
2023-06-09T00:16:33.037Z,88.04
2023-06-09T00:18:59.381Z,88.08
2023-06-09T00:21:25.816Z,87.37
2023-06-09T00:23:52.462Z,86.91
2023-06-09T00:26:19.306Z,86.71
2023-06-09T00:28:45.830Z,86.65
2023-06-09T00:31:12.354Z,87.57
2023-06-09T00:33:38.829Z,89.11
2023-06-09T00:36:05.619Z,88.89
2023-06-09T00:38:32.004Z,88.22
2023-06-09T00:40:58.514Z,87.49
2023-06-09T00:43:24.901Z,87.16
2023-06-09T00:45:51.391Z,87.34
2023-06-09T00:48:17.859Z,87.05
2023-06-09T00:50:44.267Z,87.16
2023-06-09T00:53:12.254Z,87.10
2023-06-09T00:55:41.422Z,87.02
2023-06-09T00:58:09.397Z,87.01
2023-06-09T01:00:35.978Z,86.36
2023-06-09T01:03:03.522Z,86.34
2023-06-09T01:05:32.012Z,86.29
2023-06-09T01:08:26.184Z,86.57
2023-06-09T01:11:23.786Z,85.95
2023-06-09T01:14:02.615Z,86.03
2023-06-09T01:16:38.949Z,85.83
2023-06-09T01:19:11.994Z,86.04
2023-06-09T01:21:46.690Z,85.88
2023-06-09T01:24:32.877Z,86.00
2023-06-09T01:27:03.893Z,85.89
2023-06-09T01:29:32.574Z,85.81
2023-06-09T01:32:01.697Z,85.54
2023-06-09T01:34:29.048Z,85.12
2023-06-09T01:36:55.665Z,85.91
2023-06-09T01:39:22.191Z,85.14
2023-06-09T01:41:48.587Z,85.38
2023-06-09T01:44:15.011Z,85.42
2023-06-09T01:46:42.405Z,85.52
2023-06-09T01:49:17.207Z,85.50
2023-06-09T01:51:53.667Z,85.42
2023-06-09T01:54:32.989Z,86.37
2023-06-09T01:57:07.221Z,86.02
2023-06-09T01:59:52.378Z,86.43
2023-06-09T02:02:20.787Z,86.27
2023-06-09T02:04:51.162Z,87.28
2023-06-09T02:07:18.326Z,86.64
2023-06-09T02:09:48.313Z,86.56
2023-06-09T02:12:14.796Z,86.34
2023-06-09T02:14:42.335Z,87.49
2023-06-09T02:17:09.288Z,86.89
2023-06-09T02:19:39.454Z,86.96
2023-06-09T02:22:07.094Z,86.58
2023-06-09T02:24:34.179Z,86.43
2023-06-09T02:27:00.542Z,86.48
2023-06-09T02:29:27.746Z,86.00
2023-06-09T02:31:59.777Z,85.72
2023-06-09T02:34:26.178Z,85.61
2023-06-09T02:36:52.678Z,85.69
2023-06-09T02:39:20.258Z,85.73
2023-06-09T02:41:47.007Z,86.00
2023-06-09T02:44:14.151Z,85.34
2023-06-09T02:46:40.790Z,85.30
2023-06-09T02:49:07.882Z,85.22
2023-06-09T02:51:34.340Z,85.16
2023-06-09T02:54:00.688Z,84.97
2023-06-09T02:56:27.057Z,85.32
2023-06-09T02:58:53.591Z,84.97
2023-06-09T03:01:21.082Z,84.90
2023-06-09T03:03:48.439Z,84.61
2023-06-09T03:06:15.276Z,84.88
2023-06-09T03:08:42.106Z,84.42
2023-06-09T03:11:08.721Z,84.98
2023-06-09T03:13:35.355Z,85.21
2023-06-09T03:16:01.798Z,86.34
2023-06-09T03:18:28.254Z,86.37
2023-06-09T03:20:54.936Z,86.41
2023-06-09T03:23:21.941Z,85.98
2023-06-09T03:25:49.008Z,85.99
2023-06-09T03:28:15.357Z,85.89
2023-06-09T03:30:41.783Z,85.93
2023-06-09T03:33:08.233Z,85.82
2023-06-09T03:35:34.596Z,86.52
2023-06-09T03:38:00.928Z,87.35
2023-06-09T03:40:27.318Z,86.97
2023-06-09T03:42:53.662Z,86.59
2023-06-09T03:45:19.973Z,86.33
2023-06-09T03:47:46.313Z,86.27
2023-06-09T03:50:12.890Z,86.07
2023-06-09T03:52:41.228Z,86.35
2023-06-09T03:55:08.203Z,86.31
2023-06-09T03:57:34.637Z,85.80
2023-06-09T04:00:01.063Z,85.92
2023-06-09T04:02:27.597Z,85.56
2023-06-09T04:04:54.005Z,85.67
2023-06-09T04:07:20.355Z,85.37
2023-06-09T04:09:46.722Z,85.53
2023-06-09T04:12:13.050Z,85.39
2023-06-09T04:14:39.533Z,84.94
2023-06-09T04:17:06.681Z,84.92
2023-06-09T04:19:33.069Z,84.92
2023-06-09T04:22:04.099Z,84.88
2023-06-09T04:24:30.430Z,84.67
2023-06-09T04:26:56.741Z,84.51
2023-06-09T04:29:23.207Z,84.66
2023-06-09T04:31:49.632Z,84.58
2023-06-09T04:34:16.072Z,84.65
2023-06-09T04:36:42.522Z,85.24
2023-06-09T04:39:09.412Z,84.35
2023-06-09T04:41:35.913Z,83.58
2023-06-09T04:44:02.376Z,83.15
2023-06-09T04:46:28.868Z,82.75
2023-06-09T04:48:55.246Z,82.53
2023-06-09T04:51:21.679Z,82.56
2023-06-09T04:53:48.008Z,82.50
2023-06-09T04:56:14.351Z,82.89
2023-06-09T04:58:40.950Z,82.71
2023-06-09T05:01:07.301Z,83.16
2023-06-09T05:03:33.672Z,82.62
2023-06-09T05:06:00.052Z,83.09
2023-06-09T05:08:26.390Z,83.20
2023-06-09T05:10:52.761Z,83.26
2023-06-09T05:13:19.857Z,83.39
2023-06-09T05:15:46.292Z,82.89
2023-06-09T05:18:12.625Z,82.32
2023-06-09T05:20:38.989Z,82.63
2023-06-09T05:23:05.354Z,81.94
2023-06-09T05:25:31.682Z,82.23
2023-06-09T05:27:58.019Z,80.88
2023-06-09T05:30:24.439Z,80.87
2023-06-09T05:32:50.832Z,81.29
2023-06-09T05:35:17.215Z,81.09
2023-06-09T05:37:51.159Z,80.80
2023-06-09T05:40:19.472Z,80.32
2023-06-09T05:42:46.249Z,79.68
2023-06-09T05:45:12.619Z,79.39
2023-06-09T05:47:38.966Z,80.08
2023-06-09T05:50:06.072Z,79.50
2023-06-09T05:52:32.488Z,79.66
2023-06-09T05:54:58.817Z,79.73
2023-06-09T05:57:25.164Z,80.23
2023-06-09T05:59:51.612Z,80.29
2023-06-09T06:02:18.225Z,79.98
2023-06-09T06:04:44.717Z,80.43
2023-06-09T06:07:11.178Z,80.46
2023-06-09T06:09:37.633Z,80.28
2023-06-09T06:12:04.331Z,79.95
2023-06-09T06:14:30.647Z,79.84
2023-06-09T06:16:57.088Z,79.42
2023-06-09T06:19:24.024Z,79.05
2023-06-09T06:21:50.409Z,78.46
2023-06-09T06:24:16.945Z,78.08
2023-06-09T06:26:43.386Z,77.62
2023-06-09T06:29:09.736Z,77.26
2023-06-09T06:31:36.214Z,77.55
2023-06-09T06:34:04.253Z,77.14
2023-06-09T06:36:32.173Z,76.65
2023-06-09T06:38:58.535Z,76.61
2023-06-09T06:41:25.013Z,76.45
2023-06-09T06:43:51.451Z,76.37
2023-06-09T06:46:18.514Z,75.89
2023-06-09T06:48:45.050Z,75.76
2023-06-09T06:51:11.385Z,74.96
2023-06-09T06:53:38.012Z,73.93
2023-06-09T06:56:04.659Z,73.49
2023-06-09T06:58:31.073Z,72.15
2023-06-09T07:00:57.505Z,70.21
2023-06-09T07:03:24.373Z,68.84
2023-06-09T07:05:51.257Z,69.34
2023-06-09T07:08:17.606Z,68.23
2023-06-09T07:10:44.064Z,68.44
2023-06-09T07:13:10.467Z,67.85
2023-06-09T07:15:36.916Z,67.94
2023-06-09T07:18:03.689Z,66.74
2023-06-09T07:20:30.184Z,66.45
2023-06-09T07:22:56.515Z,66.57
2023-06-09T07:25:22.839Z,64.44
2023-06-09T07:27:49.245Z,65.13
2023-06-09T07:30:16.000Z,64.30
2023-06-09T07:32:42.397Z,63.70
2023-06-09T07:35:09.048Z,64.28
2023-06-09T07:37:35.378Z,63.96
2023-06-09T07:40:14.093Z,64.83
2023-06-09T07:42:45.193Z,64.15
2023-06-09T07:45:11.638Z,62.12
2023-06-09T07:47:38.179Z,61.64
2023-06-09T07:50:05.116Z,61.46
2023-06-09T07:52:31.528Z,62.13
2023-06-09T07:54:57.865Z,62.10
2023-06-09T07:57:24.338Z,62.24
2023-06-09T07:59:50.706Z,62.90
2023-06-09T08:02:17.032Z,63.23
2023-06-09T08:04:43.596Z,62.15
2023-06-09T08:07:10.205Z,62.27
2023-06-09T08:09:36.638Z,61.78
2023-06-09T08:12:04.947Z,60.74
2023-06-09T08:14:31.400Z,61.07
2023-06-09T08:16:57.821Z,61.55
2023-06-09T08:19:24.308Z,61.57
2023-06-09T08:21:50.635Z,61.24
2023-06-09T08:24:17.414Z,61.23
2023-06-09T08:26:43.790Z,59.44
2023-06-09T08:29:11.539Z,59.42
2023-06-09T08:31:38.076Z,59.04
2023-06-09T08:34:04.778Z,59.23
2023-06-09T08:36:31.232Z,58.92
2023-06-09T08:38:57.567Z,57.67
2023-06-09T08:41:26.698Z,56.64
2023-06-09T08:43:53.213Z,57.69
2023-06-09T08:46:21.649Z,57.78
2023-06-09T08:48:54.856Z,57.48
2023-06-09T08:51:21.279Z,54.99
2023-06-09T08:53:51.616Z,53.94
2023-06-09T08:56:18.511Z,54.50
2023-06-09T08:58:45.849Z,53.63
2023-06-09T09:01:12.731Z,53.80
2023-06-09T09:03:39.114Z,53.66
2023-06-09T09:06:05.712Z,54.02
2023-06-09T09:08:32.064Z,53.20
2023-06-09T09:10:58.694Z,53.54
2023-06-09T09:13:29.495Z,53.41
2023-06-09T09:15:56.371Z,53.65
2023-06-09T09:18:23.158Z,52.89
2023-06-09T09:20:49.573Z,53.94
2023-06-09T09:23:16.011Z,53.01
2023-06-09T09:25:42.774Z,52.29
2023-06-09T09:28:11.309Z,51.57
2023-06-09T09:30:49.602Z,50.62
2023-06-09T09:33:26.629Z,52.27
2023-06-09T09:35:55.089Z,52.11
2023-06-09T09:38:27.334Z,52.16
2023-06-09T09:40:58.386Z,50.86
2023-06-09T09:43:28.891Z,50.04
2023-06-09T09:45:57.229Z,49.17
2023-06-09T09:48:24.763Z,49.40
2023-06-09T09:50:53.200Z,49.91
2023-06-09T09:53:27.024Z,49.05
2023-06-09T09:55:55.405Z,48.61
2023-06-09T09:58:36.040Z,48.51
2023-06-09T10:01:07.285Z,47.47
2023-06-09T10:03:35.883Z,47.40
2023-06-09T10:06:04.778Z,47.54
2023-06-09T10:08:32.612Z,46.86
2023-06-09T10:10:59.457Z,46.86
2023-06-09T10:13:25.747Z,46.55
2023-06-09T10:15:52.369Z,46.85
2023-06-09T10:18:19.659Z,47.01
2023-06-09T10:20:46.107Z,46.21
2023-06-09T10:23:12.686Z,46.38
2023-06-09T10:25:39.170Z,44.92
2023-06-09T10:28:06.187Z,42.36
2023-06-09T10:30:32.815Z,39.47
2023-06-09T10:33:16.754Z,40.24
2023-06-09T10:35:45.240Z,41.04
2023-06-09T10:38:29.108Z,40.90
2023-06-09T10:41:18.688Z,41.22
2023-06-09T10:44:01.068Z,41.42
2023-06-09T10:46:40.530Z,40.79
2023-06-09T10:49:07.139Z,42.71
2023-06-09T10:51:43.287Z,41.52
2023-06-09T10:54:09.590Z,42.01
2023-06-09T10:56:40.534Z,41.46
2023-06-09T10:59:06.909Z,40.07
2023-06-09T11:01:33.448Z,39.03
2023-06-09T11:03:59.937Z,40.06
2023-06-09T11:06:26.330Z,37.52
2023-06-09T11:09:01.672Z,36.52
2023-06-09T11:11:48.212Z,37.98
2023-06-09T11:14:56.694Z,38.37
2023-06-09T11:17:43.202Z,37.41
2023-06-09T11:20:10.135Z,39.49
2023-06-09T11:22:42.711Z,38.29
2023-06-09T11:25:40.866Z,38.30
2023-06-09T11:28:07.684Z,36.30
2023-06-09T11:30:34.363Z,37.10
2023-06-09T11:33:03.160Z,37.26
2023-06-09T11:35:29.660Z,37.93
2023-06-09T11:38:04.537Z,37.98
2023-06-09T11:40:32.543Z,36.84
2023-06-09T11:43:00.282Z,37.21
2023-06-09T11:45:31.726Z,37.62
2023-06-09T11:48:00.017Z,37.50
2023-06-09T11:50:35.998Z,37.70
2023-06-09T11:53:10.947Z,37.55
2023-06-09T11:55:38.177Z,38.38
2023-06-09T11:58:05.263Z,38.71
2023-06-09T12:00:33.008Z,38.87
2023-06-09T12:02:59.974Z,38.57
2023-06-09T12:05:27.005Z,38.84
2023-06-09T12:07:54.911Z,38.66
2023-06-09T12:10:23.068Z,39.11
2023-06-09T12:12:51.519Z,38.85
2023-06-09T12:15:19.977Z,39.32
2023-06-09T12:17:48.830Z,35.63
2023-06-09T12:20:27.485Z,33.83
2023-06-09T12:23:04.979Z,34.66
2023-06-09T12:25:35.339Z,33.41
2023-06-09T12:28:21.645Z,33.29
2023-06-09T12:30:49.901Z,31.91
2023-06-09T12:33:24.444Z,32.42
2023-06-09T12:35:56.018Z,31.84
2023-06-09T12:38:27.743Z,32.36
2023-06-09T12:40:55.086Z,31.96
2023-06-09T12:43:23.831Z,32.98
2023-06-09T12:45:53.785Z,33.29
2023-06-09T12:48:20.733Z,32.85
2023-06-09T12:50:47.244Z,33.34
2023-06-09T12:53:15.012Z,32.61
2023-06-09T12:55:42.301Z,33.20
2023-06-09T12:58:10.683Z,33.09
2023-06-09T13:00:38.831Z,34.59
2023-06-09T13:03:07.073Z,35.20
2023-06-09T13:05:33.531Z,35.74
2023-06-09T13:08:04.380Z,35.12
2023-06-09T13:10:31.471Z,35.80
2023-06-09T13:12:58.500Z,36.27
2023-06-09T13:15:26.475Z,36.55
2023-06-09T13:17:54.271Z,35.84
2023-06-09T13:20:21.427Z,35.56
2023-06-09T13:22:48.496Z,34.83
2023-06-09T13:25:15.011Z,32.85
2023-06-09T13:27:41.697Z,33.75
2023-06-09T13:30:09.602Z,32.57
2023-06-09T13:32:36.581Z,33.57
2023-06-09T13:35:03.186Z,32.18
2023-06-09T13:37:29.536Z,33.09
2023-06-09T13:39:55.858Z,32.83
2023-06-09T13:42:22.293Z,33.60
2023-06-09T13:44:48.627Z,33.75
2023-06-09T13:47:14.970Z,32.73
2023-06-09T13:49:41.505Z,32.70
2023-06-09T13:52:07.909Z,33.28
2023-06-09T13:54:34.243Z,33.66
2023-06-09T13:57:00.902Z,33.40
2023-06-09T13:59:27.255Z,33.28
2023-06-09T14:01:53.644Z,33.08
2023-06-09T14:04:20.269Z,34.17
2023-06-09T14:06:46.640Z,33.98
2023-06-09T14:09:12.960Z,33.73
2023-06-09T14:11:39.432Z,33.27
2023-06-09T14:14:08.937Z,33.91
2023-06-09T14:16:35.458Z,34.09
2023-06-09T14:19:01.970Z,34.03
2023-06-09T14:21:28.504Z,34.25
2023-06-09T14:23:54.909Z,34.79
2023-06-09T14:26:21.285Z,35.11
2023-06-09T14:28:47.602Z,34.65
2023-06-09T14:31:14.166Z,35.29
2023-06-09T14:33:40.531Z,35.73
2023-06-09T14:36:07.039Z,35.53
2023-06-09T14:38:33.415Z,35.39
2023-06-09T14:40:59.728Z,35.79
2023-06-09T14:43:26.054Z,36.33
2023-06-09T14:45:52.500Z,36.22
2023-06-09T14:48:18.941Z,36.27
2023-06-09T14:50:46.093Z,36.29
2023-06-09T14:53:12.605Z,36.75
2023-06-09T14:55:40.849Z,36.34
2023-06-09T14:58:08.770Z,36.27
2023-06-09T15:00:35.990Z,36.43
2023-06-09T15:03:03.251Z,37.01
2023-06-09T15:05:30.886Z,36.64
2023-06-09T15:07:59.425Z,36.31
2023-06-09T15:10:30.248Z,37.10
2023-06-09T15:12:57.718Z,37.28
2023-06-09T15:15:24.849Z,37.16
2023-06-09T15:17:51.403Z,36.67
2023-06-09T15:20:21.535Z,36.54
2023-06-09T15:22:48.509Z,36.95
2023-06-09T15:25:17.814Z,36.88
2023-06-09T15:27:46.965Z,36.76
2023-06-09T15:30:15.177Z,35.99
2023-06-09T15:32:41.671Z,35.83
2023-06-09T15:35:08.795Z,36.13
2023-06-09T15:37:35.344Z,36.47
2023-06-09T15:40:04.274Z,36.95
2023-06-09T15:42:31.033Z,37.12
2023-06-09T15:44:57.490Z,36.56
2023-06-09T15:47:23.856Z,36.60
2023-06-09T15:49:50.197Z,37.59
2023-06-09T15:52:16.602Z,37.51
2023-06-09T15:54:42.915Z,37.13
2023-06-09T15:57:09.294Z,37.05
2023-06-09T15:59:35.648Z,36.78
2023-06-09T16:02:02.007Z,37.32
2023-06-09T16:04:29.558Z,36.74
2023-06-09T16:06:55.881Z,37.30
2023-06-09T16:09:22.210Z,37.14
2023-06-09T16:11:48.638Z,38.40
2023-06-09T16:14:14.956Z,38.26
2023-06-09T16:16:41.305Z,38.63
2023-06-09T16:19:08.048Z,38.35
2023-06-09T16:21:34.421Z,37.54
2023-06-09T16:24:00.907Z,37.51
2023-06-09T16:26:27.420Z,37.00
2023-06-09T16:28:53.909Z,36.51
2023-06-09T16:31:20.688Z,37.30
2023-06-09T16:33:46.963Z,36.71
2023-06-09T16:36:13.345Z,38.59
2023-06-09T16:38:39.899Z,39.38
2023-06-09T16:41:06.246Z,39.07
2023-06-09T16:43:32.617Z,38.67
2023-06-09T16:45:58.991Z,38.04
2023-06-09T16:48:25.463Z,36.39
2023-06-09T16:50:51.919Z,36.84
2023-06-09T16:53:18.295Z,34.84
2023-06-09T16:55:44.623Z,33.83
2023-06-09T16:58:11.050Z,33.29
2023-06-09T17:00:37.397Z,32.06
2023-06-09T17:03:04.216Z,29.07
2023-06-09T17:05:30.735Z,28.75
2023-06-09T17:07:57.180Z,27.17
2023-06-09T17:10:23.500Z,26.42
2023-06-09T17:12:50.582Z,25.29
2023-06-09T17:15:17.068Z,25.28
2023-06-09T17:17:43.517Z,25.12
2023-06-09T17:20:10.367Z,25.19
2023-06-09T17:22:36.736Z,25.20
2023-06-09T17:25:03.280Z,24.79
2023-06-09T17:27:29.672Z,23.88
2023-06-09T17:29:56.060Z,23.70
2023-06-09T17:32:22.419Z,23.71
2023-06-09T17:34:48.758Z,24.02
2023-06-09T17:37:15.106Z,23.32
2023-06-09T17:39:42.729Z,23.39
2023-06-09T17:42:09.315Z,24.53
2023-06-09T17:44:35.782Z,25.31
2023-06-09T17:47:02.099Z,26.13
2023-06-09T17:49:28.460Z,27.02
2023-06-09T17:51:54.895Z,28.81
2023-06-09T17:54:21.247Z,30.56
2023-06-09T17:56:47.569Z,31.47
2023-06-09T17:59:13.948Z,32.61
2023-06-09T18:01:40.367Z,33.53
2023-06-09T18:04:06.801Z,34.27
2023-06-09T18:06:33.300Z,35.19
2023-06-09T18:08:59.798Z,34.99
2023-06-09T18:11:26.161Z,35.77
2023-06-09T18:13:52.521Z,35.83
2023-06-09T18:16:19.019Z,36.48
2023-06-09T18:18:45.736Z,36.57
2023-06-09T18:21:12.096Z,36.28
2023-06-09T18:23:38.504Z,36.84
2023-06-09T18:26:06.512Z,36.91
2023-06-09T18:28:32.834Z,37.14
2023-06-09T18:30:59.844Z,37.65
2023-06-09T18:33:26.239Z,37.90
2023-06-09T18:35:52.565Z,37.92
2023-06-09T18:38:19.007Z,37.53
2023-06-09T18:40:45.328Z,36.88
2023-06-09T18:43:11.668Z,36.58
2023-06-09T18:45:38.013Z,36.78
2023-06-09T18:48:04.432Z,36.57
2023-06-09T18:50:30.957Z,36.49
2023-06-09T18:52:57.293Z,37.06
2023-06-09T18:55:23.648Z,37.50
2023-06-09T18:57:50.101Z,37.69
2023-06-09T19:00:16.590Z,37.93
2023-06-09T19:02:43.126Z,38.31
2023-06-09T19:05:10.507Z,38.17
2023-06-09T19:07:37.094Z,37.81
2023-06-09T19:10:03.707Z,37.69
2023-06-09T19:12:30.055Z,37.82
2023-06-09T19:14:56.498Z,37.86
2023-06-09T19:17:22.877Z,38.01
2023-06-09T19:19:49.483Z,38.24
2023-06-09T19:22:15.907Z,38.38
2023-06-09T19:24:43.881Z,38.27
2023-06-09T19:27:10.431Z,38.66
2023-06-09T19:29:36.736Z,38.81
2023-06-09T19:32:03.326Z,39.29
2023-06-09T19:34:29.772Z,39.20
2023-06-09T19:36:56.114Z,39.49
2023-06-09T19:39:22.452Z,39.57
2023-06-09T19:41:49.124Z,39.67
2023-06-09T19:44:15.693Z,39.89
2023-06-09T19:46:42.174Z,40.36
2023-06-09T19:49:08.567Z,40.45
2023-06-09T19:51:34.928Z,40.74
2023-06-09T19:54:01.230Z,41.09
2023-06-09T19:56:27.558Z,40.95
2023-06-09T19:58:53.892Z,41.28
2023-06-09T20:01:20.413Z,41.31
2023-06-09T20:03:46.871Z,41.58
2023-06-09T20:06:13.212Z,41.86
2023-06-09T20:08:39.610Z,41.95
2023-06-09T20:11:05.940Z,41.96
2023-06-09T20:13:32.401Z,42.37
2023-06-09T20:15:58.840Z,42.29
2023-06-09T20:18:25.218Z,42.61
2023-06-09T20:20:51.663Z,43.10
2023-06-09T20:23:18.247Z,43.01
2023-06-09T20:25:44.667Z,42.96
2023-06-09T20:28:11.112Z,43.50
2023-06-09T20:30:37.525Z,43.61
2023-06-09T20:33:04.023Z,43.34
2023-06-09T20:35:30.429Z,44.09
2023-06-09T20:37:56.902Z,44.01
2023-06-09T20:40:23.244Z,44.58
2023-06-09T20:42:49.582Z,44.71
2023-06-09T20:45:16.083Z,44.62
2023-06-09T20:47:43.102Z,45.26
2023-06-09T20:50:09.643Z,47.25
2023-06-09T20:52:36.051Z,45.67
2023-06-09T20:55:02.898Z,45.96
2023-06-09T20:57:29.331Z,46.69
2023-06-09T20:59:56.340Z,47.09
2023-06-09T21:02:22.756Z,48.05
2023-06-09T21:04:49.253Z,48.17
2023-06-09T21:07:15.695Z,48.34
2023-06-09T21:09:42.106Z,49.00
2023-06-09T21:12:09.232Z,49.31
2023-06-09T21:14:35.481Z,50.37
2023-06-09T21:17:01.908Z,49.86
2023-06-09T21:19:28.402Z,49.90
2023-06-09T21:21:54.743Z,50.41
2023-06-09T21:24:21.179Z,50.86
2023-06-09T21:26:47.565Z,51.15
2023-06-09T21:29:14.039Z,51.36
2023-06-09T21:31:40.417Z,51.75
2023-06-09T21:34:06.817Z,52.05
2023-06-09T21:36:33.210Z,52.18
2023-06-09T21:38:59.800Z,52.64
2023-06-09T21:41:26.180Z,52.73
2023-06-09T21:43:52.530Z,52.88
2023-06-09T21:46:19.537Z,53.07
2023-06-09T21:48:45.875Z,53.43
2023-06-09T21:51:12.319Z,53.95
2023-06-09T21:53:38.672Z,54.09
2023-06-09T21:56:05.214Z,54.26
2023-06-09T21:58:31.586Z,54.74
2023-06-09T22:00:57.953Z,54.72
2023-06-09T22:03:24.315Z,55.09
2023-06-09T22:05:50.675Z,55.21
2023-06-09T22:08:17.046Z,55.58
2023-06-09T22:10:43.372Z,55.91
2023-06-09T22:13:09.687Z,55.89
2023-06-09T22:15:36.273Z,56.17
2023-06-09T22:18:02.631Z,56.19
2023-06-09T22:20:29.107Z,56.53
2023-06-09T22:22:55.498Z,57.54
2023-06-09T22:25:21.849Z,57.68
2023-06-09T22:27:48.407Z,57.61
2023-06-09T22:30:15.106Z,57.93
2023-06-09T22:32:41.666Z,57.98
2023-06-09T22:35:08.576Z,58.18
2023-06-09T22:37:35.104Z,58.15
2023-06-09T22:40:01.594Z,58.39
2023-06-09T22:42:27.946Z,58.66
2023-06-09T22:44:54.279Z,58.98
2023-06-09T22:47:20.839Z,58.87
2023-06-09T22:50:05.277Z,59.02
2023-06-09T22:52:31.939Z,59.65
2023-06-09T22:54:58.275Z,59.84
2023-06-09T22:57:24.673Z,60.48
2023-06-09T22:59:51.107Z,60.58
2023-06-09T23:02:17.472Z,60.44
2023-06-09T23:04:43.809Z,61.38
2023-06-09T23:07:10.269Z,61.29
2023-06-09T23:09:36.613Z,61.79
2023-06-09T23:12:03.255Z,61.49
2023-06-09T23:14:29.702Z,61.76
2023-06-09T23:16:56.034Z,61.55
2023-06-09T23:19:22.375Z,61.97
2023-06-09T23:21:48.805Z,62.09
2023-06-09T23:24:15.258Z,62.30
2023-06-09T23:26:41.883Z,62.26
2023-06-09T23:29:08.230Z,62.35
2023-06-09T23:31:34.732Z,62.69
2023-06-09T23:34:01.093Z,62.19
2023-06-09T23:36:27.453Z,62.65
2023-06-09T23:38:53.963Z,63.25
2023-06-09T23:41:20.343Z,62.96
2023-06-09T23:43:46.697Z,63.32
2023-06-09T23:46:13.293Z,63.78
2023-06-09T23:48:39.703Z,63.82
2023-06-09T23:51:06.036Z,63.97
2023-06-09T23:53:32.397Z,64.38
2023-06-09T23:55:58.757Z,64.79
2023-06-09T23:58:25.089Z,65.53
